createdAt,value
2022-10-19T00:26:33.719Z,12.25
2022-10-19T00:56:33.725Z,12.19
2022-10-19T01:26:33.734Z,11.88
2022-10-19T01:56:33.734Z,11.5
2022-10-19T02:26:33.740Z,11.44
2022-10-19T02:56:33.741Z,11.25
2022-10-19T03:26:33.730Z,11.25
2022-10-19T03:56:33.748Z,11.44
2022-10-19T04:26:33.742Z,11.19
2022-10-19T04:56:33.761Z,10.63
2022-10-19T05:26:33.751Z,10.81
2022-10-19T05:56:33.761Z,10.81
2022-10-19T06:26:33.754Z,11.19
2022-10-19T06:56:33.785Z,11.69
2022-10-19T07:26:33.787Z,11.25
2022-10-19T07:56:33.790Z,11.13
2022-10-19T08:26:33.794Z,12
2022-10-19T08:56:50.561Z,12.88
2022-10-19T09:26:33.791Z,13.44
2022-10-19T09:56:33.793Z,14.5
2022-10-19T10:26:33.789Z,14.81
2022-10-19T10:56:33.811Z,16.25
2022-10-19T11:26:33.800Z,17
2022-10-19T11:56:44.652Z,18.06
2022-10-19T12:26:33.836Z,18.56
2022-10-19T12:56:33.813Z,16.5
2022-10-19T13:26:33.832Z,17.06
2022-10-19T13:56:33.881Z,17.5
2022-10-19T14:26:33.836Z,17.38
2022-10-19T14:56:33.849Z,16.75
2022-10-19T15:26:33.851Z,16.31
2022-10-19T15:56:33.860Z,15.31
2022-10-19T16:26:33.862Z,13.69
2022-10-19T16:56:33.862Z,12.75
2022-10-19T17:26:33.866Z,12.38
2022-10-19T17:56:33.869Z,11.81
2022-10-19T18:26:33.877Z,11.44
2022-10-19T18:56:33.880Z,11.13
2022-10-19T19:26:33.884Z,10.69
2022-10-19T19:56:33.887Z,10
2022-10-19T20:26:33.883Z,9.69
2022-10-19T20:56:33.898Z,9.44
2022-10-19T21:26:33.900Z,9.06
2022-10-19T21:56:33.907Z,8.88
2022-10-19T22:26:33.921Z,8.63
2022-10-19T22:56:33.924Z,8.19
2022-10-19T23:26:33.915Z,8.06
2022-10-19T23:56:33.927Z,7.81
